Time;durP1;ratioP1;P1;durP2;ratioP2;P2;SDS_P1;SDS_P2;PMS_P1;PMS_P2;Temp;Humidity;BMP_temperature;BMP_pressure;BME280_temperature;BME280_humidity;BME280_pressure;Samples;Min_cycle;Max_cycle;Signal;HPM_P1;HPM_P2
2022/06/19 00:00:51;;;;;;;;;;;;;;;19.30;70.88;98185.94;4211393;28;19920;-72
2022/06/19 00:02:52;;;;;;;;;;;;;;;19.27;72.30;98186.03;4212837;28;20420;-72
2022/06/19 00:04:55;;;;;;;;;;;;;;;19.18;72.61;98191.50;4212338;28;19955;-72
2022/06/19 00:06:56;;;;;;;;;;;;;;;19.16;72.54;98193.97;4218014;28;20540;-72
2022/06/19 00:08:57;;;;;;;;;;;;;;;19.12;72.11;98191.25;4205386;28;20219;-72
2022/06/19 00:10:58;;;;;;;;;;;;;;;19.08;72.52;98185.75;4213182;28;20329;-72
2022/06/19 00:12:59;;;;;;;;;;;;;;;19.07;71.81;98189.00;4214229;28;19928;-72
2022/06/19 00:14:59;;;;;;;;;;;;;;;19.01;72.23;98176.72;4210970;28;19923;-72
2022/06/19 00:16:59;;;;;;;;;;;;;;;18.96;72.79;98178.06;4213291;28;19950;-72
2022/06/19 00:19:00;;;;;;;;;;;;;;;18.91;73.35;98177.81;4207613;28;20383;-72
2022/06/19 00:21:00;;;;;;;;;;;;;;;18.81;74.24;98174.06;4207614;28;19917;-72
2022/06/19 00:23:01;;;;;;;;;;;;;;;18.77;73.76;98164.94;4213201;28;20782;-72
2022/06/19 00:25:01;;;;;;;;;;;;;;;18.75;73.51;98165.41;4214932;28;19956;-72
2022/06/19 00:27:02;;;;;;;;;;;;;;;18.73;74.58;98158.66;4213305;28;20046;-72
2022/06/19 00:29:02;;;;;;;;;;;;;;;18.67;74.71;98160.41;4198180;28;20031;-72
2022/06/19 00:31:03;;;;;;;;;;;;;;;18.62;74.88;98163.72;4213222;28;19941;-72
2022/06/19 00:33:03;;;;;;;;;;;;;;;18.59;74.73;98142.97;4215117;28;20318;-72
2022/06/19 00:35:04;;;;;;;;;;;;;;;18.56;74.17;98143.88;4215641;28;20191;-72
2022/06/19 00:37:05;;;;;;;;;;;;;;;18.54;73.41;98143.53;4211538;28;20446;-72
2022/06/19 00:39:05;;;;;;;;;;;;;;;18.48;73.35;98143.25;4213142;28;20264;-72
2022/06/19 00:41:05;;;;;;;;;;;;;;;18.49;73.00;98133.63;4209373;28;20306;-72
2022/06/19 00:43:06;;;;;;;;;;;;;;;18.45;73.44;98132.94;4214267;28;20382;-72
2022/06/19 00:45:06;;;;;;;;;;;;;;;18.47;72.55;98130.47;4214156;28;20034;-72
2022/06/19 00:47:13;;;;;;;;;;;;;;;18.44;73.34;98128.53;4207011;28;19920;-72
2022/06/19 00:49:19;;;;;;;;;;;;;;;18.41;73.85;98125.84;4213273;28;19923;-72
2022/06/19 00:51:19;;;;;;;;;;;;;;;18.38;72.96;98129.53;4213159;28;19923;-72
2022/06/19 00:53:27;;;;;;;;;;;;;;;18.42;71.90;98117.00;4215175;28;20279;-72
2022/06/19 00:55:32;;;;;;;;;;;;;;;18.55;71.59;98116.28;4213464;28;19967;-72
2022/06/19 00:57:34;;;;;;;;;;;;;;;18.59;71.44;98114.19;4209948;28;19920;-72
2022/06/19 00:59:36;;;;;;;;;;;;;;;18.67;70.09;98095.97;4210644;28;19920;-72
2022/06/19 01:01:36;;;;;;;;;;;;;;;18.77;68.64;98098.47;4211150;28;19962;-72
2022/06/19 01:03:41;;;;;;;;;;;;;;;18.82;68.42;98088.75;4213099;28;20379;-72
2022/06/19 01:05:42;;;;;;;;;;;;;;;18.86;68.23;98083.81;4210771;28;19916;-72
2022/06/19 01:07:44;;;;;;;;;;;;;;;18.88;67.91;98086.22;4213443;28;20461;-72
2022/06/19 01:09:44;;;;;;;;;;;;;;;18.87;68.41;98084.63;4209146;28;20009;-72
2022/06/19 01:11:45;;;;;;;;;;;;;;;18.89;67.48;98068.16;4213338;28;19919;-72
2022/06/19 01:13:45;;;;;;;;;;;;;;;18.80;68.16;98069.59;4213424;28;20343;-72
2022/06/19 01:15:45;;;;;;;;;;;;;;;18.77;68.25;98066.88;4208251;28;19927;-72
2022/06/19 01:17:47;;;;;;;;;;;;;;;18.66;68.84;98053.16;4212800;28;19912;-72
2022/06/19 01:19:47;;;;;;;;;;;;;;;18.62;68.65;98049.66;4210956;28;19955;-72
2022/06/19 01:21:56;;;;;;;;;;;;;;;18.52;69.32;98045.09;4216949;28;19938;-72
2022/06/19 01:23:59;;;;;;;;;;;;;;;18.46;69.49;98041.28;4215419;28;19916;-72
2022/06/19 01:25:59;;;;;;;;;;;;;;;18.33;69.99;98038.41;4212310;28;19927;-72
2022/06/19 01:30:21;;;;;;;;;;;;;;;18.35;68.88;98044.38;4208122;28;20413;-72
2022/06/19 01:32:21;;;;;;;;;;;;;;;18.39;68.57;98042.28;4213627;28;19916;-72
2022/06/19 01:34:28;;;;;;;;;;;;;;;18.38;69.01;98043.50;4211963;28;19919;-72
2022/06/19 01:36:30;;;;;;;;;;;;;;;18.41;68.39;98033.41;4219975;28;20274;-72
2022/06/19 01:38:32;;;;;;;;;;;;;;;18.42;68.63;98026.59;4207116;28;19920;-72
2022/06/19 01:40:34;;;;;;;;;;;;;;;18.39;68.56;98017.06;4211972;28;19924;-71
2022/06/19 01:42:34;;;;;;;;;;;;;;;18.38;68.42;98014.72;4210220;28;20210;-72
2022/06/19 01:44:35;;;;;;;;;;;;;;;18.41;68.12;98002.59;4211847;28;19951;-72
2022/06/19 01:46:35;;;;;;;;;;;;;;;18.37;68.76;98013.09;4208143;28;20249;-72
2022/06/19 01:48:37;;;;;;;;;;;;;;;18.35;68.50;98007.16;4212464;28;20181;-72
2022/06/19 01:50:38;;;;;;;;;;;;;;;18.38;68.26;98020.31;4212605;28;20528;-72
2022/06/19 01:52:38;;;;;;;;;;;;;;;18.37;68.56;98024.31;4210839;28;19916;-72
2022/06/19 01:54:41;;;;;;;;;;;;;;;18.36;68.59;98020.72;4208416;28;19916;-72
2022/06/19 01:56:42;;;;;;;;;;;;;;;18.40;68.27;98023.44;4212282;28;19916;-72
2022/06/19 01:58:50;;;;;;;;;;;;;;;18.40;68.28;98018.63;4208770;28;19916;-72
2022/06/19 02:00:50;;;;;;;;;;;;;;;18.41;68.30;98011.81;4212177;28;19930;-72
2022/06/19 02:03:20;;;;;;;;;;;;;;;18.41;67.67;97999.81;4212734;28;20011;-72
2022/06/19 02:05:21;;;;;;;;;;;;;;;18.36;70.00;97997.53;4169739;28;19932;-72
2022/06/19 02:07:23;;;;;;;;;;;;;;;18.31;69.99;97987.69;4216801;28;20236;-72
2022/06/19 02:09:24;;;;;;;;;;;;;;;18.29;69.92;97994.94;4209532;28;20377;-72
2022/06/19 02:11:25;;;;;;;;;;;;;;;18.28;68.99;97980.13;4217607;28;19960;-72
2022/06/19 02:13:25;;;;;;;;;;;;;;;18.31;68.35;97978.50;4219673;28;20714;-73
2022/06/19 02:15:26;;;;;;;;;;;;;;;18.39;68.83;97963.84;4214243;28;19919;-72
2022/06/19 02:17:32;;;;;;;;;;;;;;;18.40;68.47;97964.63;4215084;28;19979;-72
2022/06/19 02:19:32;;;;;;;;;;;;;;;18.34;69.80;97955.97;4212163;28;19966;-72
2022/06/19 02:21:37;;;;;;;;;;;;;;;18.29;69.04;97955.72;4216242;28;19916;-72
2022/06/19 02:23:39;;;;;;;;;;;;;;;18.17;70.75;97951.66;4216309;28;20006;-71
2022/06/19 02:25:40;;;;;;;;;;;;;;;18.11;70.67;97953.41;4216000;28;20201;-71
2022/06/19 02:27:40;;;;;;;;;;;;;;;18.06;69.88;97951.94;4222353;28;19916;-71
2022/06/19 02:29:41;;;;;;;;;;;;;;;18.10;69.66;97947.03;4215368;28;19926;-72
2022/06/19 02:31:42;;;;;;;;;;;;;;;18.17;68.36;97943.25;4213736;28;19969;-72
2022/06/19 02:33:44;;;;;;;;;;;;;;;18.15;69.22;97943.72;4214018;28;19919;-72
2022/06/19 02:35:45;;;;;;;;;;;;;;;18.17;68.86;97930.03;4215760;27;19935;-72
2022/06/19 02:37:46;;;;;;;;;;;;;;;18.16;68.17;97938.88;4215041;27;19916;-72
2022/06/19 02:40:05;;;;;;;;;;;;;;;18.10;68.48;97926.66;4214198;28;20517;-72
2022/06/19 02:42:08;;;;;;;;;;;;;;;18.08;68.51;97924.31;4212205;28;20306;-72
2022/06/19 02:44:08;;;;;;;;;;;;;;;18.04;68.99;97931.22;4214513;28;20099;-72
2022/06/19 02:46:09;;;;;;;;;;;;;;;17.96;68.81;97934.22;4216762;28;20201;-72
2022/06/19 02:48:29;;;;;;;;;;;;;;;17.93;68.89;97935.09;4219776;28;20589;-72
2022/06/19 02:50:31;;;;;;;;;;;;;;;17.86;69.10;97940.09;4218678;28;20216;-72
2022/06/19 02:52:31;;;;;;;;;;;;;;;17.81;69.30;97944.22;4215044;28;19923;-72
2022/06/19 02:54:32;;;;;;;;;;;;;;;17.78;69.54;97941.50;4215969;28;20368;-72
2022/06/19 02:56:32;;;;;;;;;;;;;;;17.81;69.38;97940.63;4218623;28;19916;-72
2022/06/19 02:58:32;;;;;;;;;;;;;;;17.84;69.11;97942.53;4212975;28;19920;-72
2022/06/19 03:00:33;;;;;;;;;;;;;;;17.88;69.31;97937.66;4214179;28;20287;-72
2022/06/19 03:02:33;;;;;;;;;;;;;;;17.90;68.40;97941.56;4219020;28;20332;-72
2022/06/19 03:04:35;;;;;;;;;;;;;;;17.92;69.13;97939.13;4218371;28;20018;-72
2022/06/19 03:06:35;;;;;;;;;;;;;;;17.93;69.25;97937.09;4214431;28;20001;-72
2022/06/19 03:08:35;;;;;;;;;;;;;;;17.93;69.35;97934.31;4216607;28;20540;-72
2022/06/19 03:10:36;;;;;;;;;;;;;;;17.90;69.61;97938.78;4210631;28;20042;-72
2022/06/19 03:12:36;;;;;;;;;;;;;;;17.91;69.60;97917.97;4215394;28;19920;-72
2022/06/19 03:14:36;;;;;;;;;;;;;;;17.84;70.04;97931.34;4215263;28;20391;-72
2022/06/19 03:16:37;;;;;;;;;;;;;;;17.90;68.98;97924.78;4211906;28;19920;-72
2022/06/19 03:18:38;;;;;;;;;;;;;;;17.89;69.70;97925.22;4212561;28;19916;-72
2022/06/19 03:20:39;;;;;;;;;;;;;;;17.87;69.75;97925.69;4214802;28;19920;-72
2022/06/19 03:22:39;;;;;;;;;;;;;;;17.87;69.14;97920.06;4215324;28;19960;-72
2022/06/19 03:24:39;;;;;;;;;;;;;;;17.83;70.10;97929.78;4214571;28;19920;-72
2022/06/19 03:26:39;;;;;;;;;;;;;;;17.79;70.16;97929.06;4211827;28;19923;-72
2022/06/19 03:28:40;;;;;;;;;;;;;;;17.81;70.04;97924.63;4208468;28;19920;-72
2022/06/19 03:30:40;;;;;;;;;;;;;;;17.76;70.52;97918.78;4216229;28;19968;-72
2022/06/19 03:32:40;;;;;;;;;;;;;;;17.68;71.03;97926.53;4215191;28;19923;-72
2022/06/19 03:34:42;;;;;;;;;;;;;;;17.61;71.36;97924.69;4214932;28;20092;-72
2022/06/19 03:36:42;;;;;;;;;;;;;;;17.53;71.70;97926.09;4211559;27;19968;-72
2022/06/19 03:38:43;;;;;;;;;;;;;;;17.53;71.40;97933.72;4212128;28;20407;-72
2022/06/19 03:40:43;;;;;;;;;;;;;;;17.50;71.73;97924.19;4212338;28;19916;-72
2022/06/19 03:42:43;;;;;;;;;;;;;;;17.50;71.70;97921.41;4213737;28;19958;-72
2022/06/19 03:44:43;;;;;;;;;;;;;;;17.32;72.33;97929.44;4214787;28;19916;-72
2022/06/19 03:46:44;;;;;;;;;;;;;;;17.25;72.43;97922.00;4214495;28;19927;-72
2022/06/19 03:48:46;;;;;;;;;;;;;;;17.14;72.73;97924.28;4214819;28;19970;-72
2022/06/19 03:50:46;;;;;;;;;;;;;;;16.99;73.81;97923.03;4215839;28;19916;-72
2022/06/19 03:52:47;;;;;;;;;;;;;;;16.97;73.91;97915.09;4213930;28;19916;-72
2022/06/19 03:54:47;;;;;;;;;;;;;;;16.96;74.04;97910.69;4214442;28;19915;-72
2022/06/19 03:56:47;;;;;;;;;;;;;;;16.98;74.01;97908.28;4209556;28;20283;-72
2022/06/19 03:58:48;;;;;;;;;;;;;;;16.98;73.91;97905.47;4213141;28;19920;-72
2022/06/19 04:00:48;;;;;;;;;;;;;;;17.04;73.81;97894.56;4212639;28;20201;-72
2022/06/19 04:02:48;;;;;;;;;;;;;;;17.11;73.50;97899.97;4215048;28;20091;-72
2022/06/19 04:04:48;;;;;;;;;;;;;;;17.20;73.33;97904.97;4215726;28;20169;-72
2022/06/19 04:06:49;;;;;;;;;;;;;;;17.28;72.93;97895.19;4212009;28;19920;-72
2022/06/19 04:08:49;;;;;;;;;;;;;;;17.34;72.79;97893.44;4213021;28;19920;-72
2022/06/19 04:10:49;;;;;;;;;;;;;;;17.38;72.63;97886.53;4211414;28;19923;-72
2022/06/19 04:12:50;;;;;;;;;;;;;;;17.46;71.92;97881.56;4213386;28;19916;-72
2022/06/19 04:14:52;;;;;;;;;;;;;;;17.54;71.42;97880.16;4217798;28;20260;-72
2022/06/19 04:16:52;;;;;;;;;;;;;;;17.63;71.71;97876.72;4207935;28;19991;-72
2022/06/19 04:18:53;;;;;;;;;;;;;;;17.70;71.62;97868.16;4213622;28;20272;-72
2022/06/19 04:20:54;;;;;;;;;;;;;;;17.79;70.39;97862.75;4214076;28;20386;-72
2022/06/19 04:22:54;;;;;;;;;;;;;;;17.88;70.42;97865.69;4208509;28;19920;-72
2022/06/19 04:24:54;;;;;;;;;;;;;;;17.99;70.05;97870.97;4213604;28;20018;-72
2022/06/19 04:26:54;;;;;;;;;;;;;;;18.10;70.45;97867.88;4213407;28;19920;-72
2022/06/19 04:28:55;;;;;;;;;;;;;;;18.18;69.97;97867.22;4208627;28;20531;-72
2022/06/19 04:30:55;;;;;;;;;;;;;;;18.28;69.39;97865.34;4218942;28;20219;-72
2022/06/19 04:32:55;;;;;;;;;;;;;;;18.38;69.80;97869.88;4212025;28;20298;-72
2022/06/19 04:34:56;;;;;;;;;;;;;;;18.43;70.60;97865.72;4205051;28;19923;-72
2022/06/19 04:36:56;;;;;;;;;;;;;;;18.44;70.60;97870.06;4210449;28;19920;-72
2022/06/19 04:38:57;;;;;;;;;;;;;;;18.43;70.90;97863.69;4213108;28;19916;-72
2022/06/19 04:40:57;;;;;;;;;;;;;;;18.47;71.04;97860.81;4213786;28;20019;-72
2022/06/19 04:42:57;;;;;;;;;;;;;;;18.50;71.20;97855.06;4216445;28;19983;-72
2022/06/19 04:44:58;;;;;;;;;;;;;;;18.57;71.23;97853.31;4212099;28;19962;-72
2022/06/19 04:46:58;;;;;;;;;;;;;;;18.64;71.56;97858.69;4211714;28;19919;-72
2022/06/19 04:48:59;;;;;;;;;;;;;;;18.69;71.53;97858.94;4206694;28;19980;-72
2022/06/19 04:50:59;;;;;;;;;;;;;;;18.78;71.72;97869.47;4207384;28;20006;-72
2022/06/19 04:53:00;;;;;;;;;;;;;;;18.83;71.58;97880.13;4213767;28;20001;-72
2022/06/19 04:55:00;;;;;;;;;;;;;;;18.95;71.43;97889.75;4214280;28;20207;-72
2022/06/19 04:57:00;;;;;;;;;;;;;;;19.05;71.57;97891.47;4216869;28;19916;-72
2022/06/19 04:59:00;;;;;;;;;;;;;;;19.15;70.53;97901.56;4211240;28;19916;-72
2022/06/19 05:01:03;;;;;;;;;;;;;;;19.30;71.12;97890.66;4213833;28;19916;-72
2022/06/19 05:03:03;;;;;;;;;;;;;;;19.44;69.13;97895.00;4214663;28;19912;-72
2022/06/19 05:05:05;;;;;;;;;;;;;;;19.59;68.13;97887.72;4213226;28;19923;-72
2022/06/19 05:07:07;;;;;;;;;;;;;;;19.79;66.56;97884.63;4213666;28;19920;-72
2022/06/19 05:09:07;;;;;;;;;;;;;;;20.11;61.64;97881.47;4219121;28;20244;-72
2022/06/19 05:11:11;;;;;;;;;;;;;;;20.59;56.72;97879.28;4213733;28;19961;-72
2022/06/19 05:13:16;;;;;;;;;;;;;;;21.13;55.03;97885.66;4212211;28;21510;-72
2022/06/19 05:15:17;;;;;;;;;;;;;;;21.81;53.03;97901.31;4212026;28;19964;-72
2022/06/19 05:17:17;;;;;;;;;;;;;;;22.47;49.63;97909.31;4216617;28;19950;-72
2022/06/19 05:19:17;;;;;;;;;;;;;;;22.67;50.18;97918.06;4205027;28;20410;-72
2022/06/19 05:21:17;;;;;;;;;;;;;;;22.89;49.22;97909.41;4210974;28;19916;-72
2022/06/19 05:23:17;;;;;;;;;;;;;;;23.06;48.73;97909.03;4210920;28;19924;-72
2022/06/19 05:25:18;;;;;;;;;;;;;;;23.19;47.95;97907.56;4209448;28;20088;-72
2022/06/19 05:27:18;;;;;;;;;;;;;;;23.34;47.63;97902.03;4214495;28;19916;-72
2022/06/19 05:29:18;;;;;;;;;;;;;;;23.54;46.96;97901.44;4206052;28;19917;-72
2022/06/19 05:31:19;;;;;;;;;;;;;;;23.58;47.24;97896.38;4207449;28;19920;-72
2022/06/19 05:33:19;;;;;;;;;;;;;;;23.75;46.55;97899.63;4212484;28;19916;-72
2022/06/19 05:35:19;;;;;;;;;;;;;;;23.78;46.34;97899.41;4211746;28;20244;-72
2022/06/19 05:37:20;;;;;;;;;;;;;;;23.91;46.36;97890.69;4206483;27;19916;-72
2022/06/19 05:39:20;;;;;;;;;;;;;;;24.28;44.87;97885.53;4211845;28;19916;-72
2022/06/19 05:41:20;;;;;;;;;;;;;;;24.26;45.25;97892.94;4211579;28;19916;-72
2022/06/19 05:43:21;;;;;;;;;;;;;;;24.11;45.57;97892.91;4213150;28;19946;-72
2022/06/19 05:45:21;;;;;;;;;;;;;;;24.15;45.95;97901.19;4207876;28;20277;-72
2022/06/19 05:47:22;;;;;;;;;;;;;;;24.44;44.25;97897.66;4216887;28;19916;-72
2022/06/19 05:49:22;;;;;;;;;;;;;;;24.62;44.25;97903.13;4208965;28;19923;-72
2022/06/19 05:51:23;;;;;;;;;;;;;;;24.72;43.50;97907.41;4208598;28;19924;-72
2022/06/19 05:53:24;;;;;;;;;;;;;;;24.73;43.83;97902.53;4213106;28;19923;-72
2022/06/19 05:55:24;;;;;;;;;;;;;;;24.76;43.47;97899.53;4218815;28;19920;-72
2022/06/19 05:57:24;;;;;;;;;;;;;;;24.81;43.90;97881.09;4207303;28;19920;-72
2022/06/19 05:59:25;;;;;;;;;;;;;;;24.81;44.00;97875.41;4210077;28;20022;-72
2022/06/19 06:01:25;;;;;;;;;;;;;;;24.81;43.92;97873.38;4211033;28;19971;-72
2022/06/19 06:03:26;;;;;;;;;;;;;;;24.83;43.62;97885.00;4208490;28;19939;-72
2022/06/19 06:05:26;;;;;;;;;;;;;;;24.93;43.74;97874.34;4213545;28;19930;-72
2022/06/19 06:07:26;;;;;;;;;;;;;;;25.06;42.81;97868.41;4192545;28;19924;-72
2022/06/19 06:09:26;;;;;;;;;;;;;;;25.11;43.55;97864.88;4207797;28;19916;-72
2022/06/19 06:11:27;;;;;;;;;;;;;;;25.23;42.67;97868.66;4209698;28;19920;-72
2022/06/19 06:13:29;;;;;;;;;;;;;;;25.20;43.11;97857.03;4207740;28;20348;-72
2022/06/19 06:15:29;;;;;;;;;;;;;;;25.19;42.43;97863.97;4210336;28;19912;-72
2022/06/19 06:17:29;;;;;;;;;;;;;;;25.32;41.95;97849.50;4215648;28;20050;-72
2022/06/19 06:19:31;;;;;;;;;;;;;;;25.34;41.75;97849.78;4209939;28;20385;-72
2022/06/19 06:21:31;;;;;;;;;;;;;;;25.24;42.91;97847.56;4211847;28;20272;-72
2022/06/19 06:23:32;;;;;;;;;;;;;;;25.33;41.53;97841.78;4212374;28;19927;-72
2022/06/19 06:25:32;;;;;;;;;;;;;;;25.42;41.69;97850.16;4212656;28;19930;-72
2022/06/19 06:27:32;;;;;;;;;;;;;;;25.57;40.88;97841.59;4210488;28;19916;-72
2022/06/19 06:29:33;;;;;;;;;;;;;;;25.68;40.41;97831.19;4208870;28;19924;-72
2022/06/19 06:31:33;;;;;;;;;;;;;;;25.71;40.98;97841.53;4214171;28;19920;-72
2022/06/19 06:33:33;;;;;;;;;;;;;;;25.66;39.99;97821.63;4207428;28;19915;-72
2022/06/19 06:35:34;;;;;;;;;;;;;;;25.76;40.66;97808.91;4212182;28;19927;-72
2022/06/19 06:37:34;;;;;;;;;;;;;;;25.85;39.37;97811.59;4208244;28;19927;-72
2022/06/19 06:39:34;;;;;;;;;;;;;;;25.82;40.11;97789.94;4210238;28;19920;-72
2022/06/19 06:41:35;;;;;;;;;;;;;;;25.87;39.71;97788.41;4210813;28;19931;-72
2022/06/19 06:43:36;;;;;;;;;;;;;;;25.99;39.33;97781.59;4208596;28;19965;-72
2022/06/19 06:45:36;;;;;;;;;;;;;;;26.06;38.94;97781.13;4211269;28;19927;-72
2022/06/19 06:47:37;;;;;;;;;;;;;;;26.05;38.96;97768.25;4210702;28;20297;-72
2022/06/19 06:49:37;;;;;;;;;;;;;;;26.05;39.05;97765.41;4195645;28;19959;-72
2022/06/19 06:51:37;;;;;;;;;;;;;;;26.28;38.00;97774.91;4212917;28;19924;-72
2022/06/19 06:53:37;;;;;;;;;;;;;;;26.35;38.16;97768.03;4214682;28;19916;-72
2022/06/19 06:55:38;;;;;;;;;;;;;;;26.43;36.95;97761.41;4214853;28;20267;-72
2022/06/19 06:57:39;;;;;;;;;;;;;;;26.50;37.05;97760.97;4209296;28;20043;-72
2022/06/19 06:59:39;;;;;;;;;;;;;;;26.70;36.06;97754.41;4215025;28;19948;-72
2022/06/19 07:01:39;;;;;;;;;;;;;;;26.73;36.56;97759.09;4214640;28;19998;-72
2022/06/19 07:03:40;;;;;;;;;;;;;;;26.74;36.32;97752.13;4212881;28;19922;-72
2022/06/19 07:05:40;;;;;;;;;;;;;;;26.94;36.75;97745.53;4210308;28;20260;-72
2022/06/19 07:07:40;;;;;;;;;;;;;;;27.13;36.10;97757.28;4210540;28;19920;-72
2022/06/19 07:09:40;;;;;;;;;;;;;;;27.20;35.71;97747.50;4218101;28;19967;-72
2022/06/19 07:11:42;;;;;;;;;;;;;;;27.20;36.02;97745.44;4211773;28;20515;-72
2022/06/19 07:13:43;;;;;;;;;;;;;;;27.21;36.20;97758.34;4213839;28;19970;-72
2022/06/19 07:15:43;;;;;;;;;;;;;;;27.33;35.98;97748.63;4217244;28;19928;-72
2022/06/19 07:17:43;;;;;;;;;;;;;;;27.43;35.17;97758.47;4218050;28;19922;-72
2022/06/19 07:19:43;;;;;;;;;;;;;;;27.49;36.00;97761.34;4211585;28;20003;-72
2022/06/19 07:21:44;;;;;;;;;;;;;;;27.59;35.10;97756.22;4213931;28;19920;-72
2022/06/19 07:23:44;;;;;;;;;;;;;;;27.66;35.33;97750.84;4213469;28;19920;-72
2022/06/19 07:25:45;;;;;;;;;;;;;;;27.79;34.83;97755.25;4212412;28;20085;-72
2022/06/19 07:27:45;;;;;;;;;;;;;;;27.82;34.88;97748.56;4213524;28;19924;-73
2022/06/19 07:29:46;;;;;;;;;;;;;;;27.85;34.48;97741.84;4212589;28;19938;-73
2022/06/19 07:31:46;;;;;;;;;;;;;;;27.99;34.50;97749.38;4206629;28;20505;-73
2022/06/19 07:33:46;;;;;;;;;;;;;;;28.07;34.79;97750.44;4216280;28;19922;-73
2022/06/19 07:35:46;;;;;;;;;;;;;;;28.27;33.62;97749.41;4215525;28;19931;-72
2022/06/19 07:37:47;;;;;;;;;;;;;;;28.44;33.04;97738.84;4214824;27;20305;-72
2022/06/19 07:39:47;;;;;;;;;;;;;;;28.38;33.79;97738.06;4211172;28;20014;-73
2022/06/19 07:41:47;;;;;;;;;;;;;;;28.35;34.09;97741.94;4215217;28;19919;-73
2022/06/19 07:43:50;;;;;;;;;;;;;;;28.23;34.58;97746.06;4215127;28;19916;-73
2022/06/19 07:45:50;;;;;;;;;;;;;;;28.31;34.07;97755.66;4215650;28;20382;-73
2022/06/19 07:50:10;;;;;;;;;;;;;;;28.59;34.07;97752.81;4208563;28;19923;-73
2022/06/19 07:52:10;;;;;;;;;;;;;;;28.74;33.55;97746.84;4213395;28;19912;-73
2022/06/19 07:54:10;;;;;;;;;;;;;;;28.96;33.56;97744.00;4212882;28;19919;-73
2022/06/19 07:56:11;;;;;;;;;;;;;;;29.08;33.06;97751.22;4210553;28;19919;-73
2022/06/19 07:58:11;;;;;;;;;;;;;;;29.21;33.35;97741.31;4215513;28;19938;-73
2022/06/19 08:00:16;;;;;;;;;;;;;;;29.31;32.59;97734.06;4212820;28;20012;-72
2022/06/19 08:02:17;;;;;;;;;;;;;;;29.40;32.26;97736.63;4215986;28;20260;-73
2022/06/19 08:04:17;;;;;;;;;;;;;;;29.37;32.72;97746.97;4217438;28;19916;-73
2022/06/19 08:06:19;;;;;;;;;;;;;;;29.20;33.62;97748.31;4213235;28;19963;-73
2022/06/19 08:08:21;;;;;;;;;;;;;;;29.19;34.16;97736.16;4212138;28;19916;-73
2022/06/19 08:10:23;;;;;;;;;;;;;;;29.21;32.93;97739.28;4210807;28;20268;-73
2022/06/19 08:12:23;;;;;;;;;;;;;;;29.34;33.14;97735.84;4214505;28;19942;-73
2022/06/19 08:14:23;;;;;;;;;;;;;;;29.50;33.58;97743.59;4214763;28;20334;-73
2022/06/19 08:16:24;;;;;;;;;;;;;;;29.54;33.34;97744.09;4215680;28;19996;-73
2022/06/19 08:18:24;;;;;;;;;;;;;;;29.62;32.54;97756.50;4216405;28;20363;-72
2022/06/19 08:20:25;;;;;;;;;;;;;;;29.71;32.99;97752.56;4209753;28;19924;-73
2022/06/19 08:22:26;;;;;;;;;;;;;;;29.75;33.35;97755.13;4208615;28;19920;-73
2022/06/19 08:24:26;;;;;;;;;;;;;;;29.82;33.34;97752.50;4210367;28;20489;-73
2022/06/19 08:26:26;;;;;;;;;;;;;;;29.92;33.40;97739.47;4207851;28;19973;-73
2022/06/19 08:30:32;;;;;;;;;;;;;;;30.01;32.78;97749.78;4205552;28;19927;-73
2022/06/19 08:32:32;;;;;;;;;;;;;;;30.08;33.17;97743.56;4206573;28;19916;-73
2022/06/19 08:34:33;;;;;;;;;;;;;;;30.12;32.55;97734.72;4207658;28;19916;-71
2022/06/19 08:36:35;;;;;;;;;;;;;;;30.14;32.39;97729.28;4209049;28;20007;-71
2022/06/19 08:38:37;;;;;;;;;;;;;;;30.18;32.31;97730.50;4208844;28;19959;-71
2022/06/19 08:40:37;;;;;;;;;;;;;;;30.29;32.19;97731.75;4211351;28;19915;-71
2022/06/19 08:42:45;;;;;;;;;;;;;;;30.24;31.67;97732.56;4212164;28;19927;-71
2022/06/19 08:44:46;;;;;;;;;;;;;;;30.21;32.89;97728.69;4213224;28;19947;-71
2022/06/19 08:47:01;;;;;;;;;;;;;;;30.23;33.85;97728.16;4214020;28;19912;-71
2022/06/19 08:49:21;;;;;;;;;;;;;;;30.28;33.00;97718.78;4210970;28;19916;-73
2022/06/19 08:51:40;;;;;;;;;;;;;;;30.39;33.50;97719.47;4210922;28;20315;-73
2022/06/19 08:53:51;;;;;;;;;;;;;;;30.35;32.96;97721.81;4205993;28;19916;-73
2022/06/19 08:55:54;;;;;;;;;;;;;;;30.47;33.08;97714.75;4214963;28;20389;-73
2022/06/19 08:58:01;;;;;;;;;;;;;;;30.47;33.11;97711.09;4211688;28;20306;-73
2022/06/19 09:00:01;;;;;;;;;;;;;;;30.41;33.09;97719.72;4210538;28;20331;-73
2022/06/19 09:02:08;;;;;;;;;;;;;;;30.53;33.47;97708.19;4211281;28;19963;-73
2022/06/19 09:06:36;;;;;;;;;;;;;;;30.65;33.09;97712.50;4211502;28;19964;-73
2022/06/19 09:08:43;;;;;;;;;;;;;;;30.77;34.02;97711.88;4210693;28;19924;-73
2022/06/19 09:10:52;;;;;;;;;;;;;;;30.88;32.67;97713.09;4209577;28;20116;-73
2022/06/19 09:12:52;;;;;;;;;;;;;;;30.93;32.83;97718.72;4210518;28;20183;-73
2022/06/19 09:14:58;;;;;;;;;;;;;;;30.94;32.34;97720.25;4212189;28;19972;-71
2022/06/19 09:17:12;;;;;;;;;;;;;;;30.96;33.09;97708.34;4212400;28;20351;-71
2022/06/19 09:19:24;;;;;;;;;;;;;;;31.10;34.14;97706.34;4208176;28;20002;-73
2022/06/19 09:21:28;;;;;;;;;;;;;;;31.26;33.13;97706.19;4207266;28;19920;-73
2022/06/19 09:23:48;;;;;;;;;;;;;;;31.35;32.74;97699.31;4213038;28;20290;-71
2022/06/19 09:25:54;;;;;;;;;;;;;;;31.39;33.06;97696.94;4211454;28;20069;-71
2022/06/19 09:28:12;;;;;;;;;;;;;;;31.43;32.81;97702.34;4212366;28;19973;-71
2022/06/19 09:30:18;;;;;;;;;;;;;;;31.53;32.65;97694.94;4215430;28;20137;-71
2022/06/19 09:32:27;;;;;;;;;;;;;;;31.56;31.87;97696.72;4212991;28;20179;-71
2022/06/19 09:34:32;;;;;;;;;;;;;;;31.63;32.88;97693.25;4211689;28;19916;-71
2022/06/19 09:36:43;;;;;;;;;;;;;;;31.80;32.45;97708.09;4214741;27;20256;-70
2022/06/19 09:38:51;;;;;;;;;;;;;;;31.81;32.17;97697.44;4208027;28;20366;-71
2022/06/19 09:40:54;;;;;;;;;;;;;;;31.80;32.61;97702.38;4213400;28;20360;-71
2022/06/19 09:42:57;;;;;;;;;;;;;;;31.83;32.57;97700.53;4213089;28;20082;-71
2022/06/19 09:44:58;;;;;;;;;;;;;;;31.89;32.54;97706.16;4213646;28;19920;-71
2022/06/19 09:47:03;;;;;;;;;;;;;;;31.85;32.73;97698.66;4211392;28;20012;-71
2022/06/19 09:49:06;;;;;;;;;;;;;;;31.99;32.31;97702.34;4214008;28;19926;-71
2022/06/19 09:51:12;;;;;;;;;;;;;;;32.07;32.03;97693.94;4206970;28;19959;-71
2022/06/19 09:53:45;;;;;;;;;;;;;;;32.14;32.56;97699.03;4209930;28;19916;-71
2022/06/19 09:55:48;;;;;;;;;;;;;;;32.24;31.50;97705.09;4184824;28;20152;-71
2022/06/19 09:57:58;;;;;;;;;;;;;;;32.26;31.09;97702.47;4212140;28;20237;-71
2022/06/19 10:00:04;;;;;;;;;;;;;;;32.18;30.97;97699.47;4210460;28;20268;-71
2022/06/19 10:02:10;;;;;;;;;;;;;;;32.25;31.39;97695.97;4216365;28;19923;-71
2022/06/19 10:04:20;;;;;;;;;;;;;;;32.40;31.56;97698.34;4208006;28;19923;-71
2022/06/19 10:06:25;;;;;;;;;;;;;;;32.50;31.73;97696.63;4212474;28;20168;-71
2022/06/19 10:08:32;;;;;;;;;;;;;;;32.63;30.78;97693.03;4213908;28;19947;-71
2022/06/19 10:10:35;;;;;;;;;;;;;;;32.53;31.71;97689.03;4212625;28;20284;-71
2022/06/19 10:12:41;;;;;;;;;;;;;;;32.58;31.35;97697.53;4210675;28;19921;-71
2022/06/19 10:14:45;;;;;;;;;;;;;;;32.65;31.79;97690.38;4211194;28;19916;-71
2022/06/19 10:16:48;;;;;;;;;;;;;;;32.66;31.16;97689.81;4211219;28;19945;-71
2022/06/19 10:18:52;;;;;;;;;;;;;;;32.78;31.67;97693.28;4211854;28;19989;-71
2022/06/19 10:22:13;;;;;;;;;;;;;;;32.87;31.02;97692.09;4207594;28;19945;-73
2022/06/19 10:23:51;;;;;;;;;;;;;;;32.91;31.13;97692.53;4213348;28;20011;-73
2022/06/19 10:25:57;;;;;;;;;;;;;;;32.95;30.78;97693.00;4214371;28;19921;-73
2022/06/19 10:27:57;;;;;;;;;;;;;;;32.95;30.69;97690.88;4210091;28;19927;-71
2022/06/19 10:30:03;;;;;;;;;;;;;;;33.03;30.62;97690.25;4212124;28;20147;-71
2022/06/19 10:32:18;;;;;;;;;;;;;;;33.15;30.83;97697.28;4216496;28;19943;-71
2022/06/19 10:34:27;;;;;;;;;;;;;;;33.19;30.55;97689.91;4217030;28;20278;-71
2022/06/19 10:36:41;;;;;;;;;;;;;;;33.24;31.02;97699.69;4211682;28;20402;-71
2022/06/19 10:38:42;;;;;;;;;;;;;;;33.33;30.33;97701.34;4216060;28;19962;-71
2022/06/19 10:40:44;;;;;;;;;;;;;;;33.45;31.11;97732.13;4215673;28;19925;-71
2022/06/19 10:43:00;;;;;;;;;;;;;;;33.39;31.13;97724.97;4215443;28;19946;-73
2022/06/19 10:45:16;;;;;;;;;;;;;;;33.34;30.12;97737.28;4219215;28;19916;-73
2022/06/19 10:47:35;;;;;;;;;;;;;;;33.39;29.75;97740.06;4215596;28;19954;-73